Time;durP1;ratioP1;P1;durP2;ratioP2;P2;SDS_P1;SDS_P2;PMS_P1;PMS_P2;Temp;Humidity;BMP_temperature;BMP_pressure;BME280_temperature;BME280_humidity;BME280_pressure;Samples;Min_cycle;Max_cycle;Signal;HPM_P1;HPM_P2
2023/08/11 00:00:13;;;;;;;;;;;;;;;16.81;83.59;101962.13;5128063;27;1086;-73
2023/08/11 00:02:38;;;;;;;;;;;;;;;16.76;83.46;101965.16;5107261;27;1500;-72
2023/08/11 00:05:04;;;;;;;;;;;;;;;16.74;84.02;101967.06;5126494;27;1902;-71
2023/08/11 00:07:29;;;;;;;;;;;;;;;16.72;84.14;101969.03;5123443;27;1153;-72
2023/08/11 00:09:55;;;;;;;;;;;;;;;16.71;84.40;101962.13;5103520;28;1382;-72
2023/08/11 00:12:20;;;;;;;;;;;;;;;16.71;84.50;101967.38;5116423;27;1121;-73
2023/08/11 00:14:46;;;;;;;;;;;;;;;16.69;84.59;101964.88;5122724;27;1080;-73
2023/08/11 00:17:11;;;;;;;;;;;;;;;16.71;84.63;101967.38;5123683;27;1113;-72
2023/08/11 00:19:36;;;;;;;;;;;;;;;16.70;84.52;101960.44;5121859;27;1168;-72
2023/08/11 00:22:02;;;;;;;;;;;;;;;16.69;84.80;101958.81;5104216;27;1661;-72
2023/08/11 00:24:27;;;;;;;;;;;;;;;16.69;84.76;101953.56;5121880;27;1046;-71
2023/08/11 00:26:52;;;;;;;;;;;;;;;16.68;85.02;101957.13;5100443;28;1886;-73
2023/08/11 00:29:17;;;;;;;;;;;;;;;16.70;84.80;101956.06;5103451;28;1176;-71
2023/08/11 00:31:43;;;;;;;;;;;;;;;16.76;84.99;101959.09;5116684;28;1114;-72
2023/08/11 00:34:08;;;;;;;;;;;;;;;16.81;84.86;101956.91;5118096;28;1120;-72
2023/08/11 00:36:34;;;;;;;;;;;;;;;16.84;84.96;101957.44;5115791;28;1121;-72
2023/08/11 00:39:00;;;;;;;;;;;;;;;16.84;84.70;101952.19;5114390;28;1084;-72
2023/08/11 00:41:26;;;;;;;;;;;;;;;16.81;84.73;101947.25;5097091;28;1344;-72
2023/08/11 00:43:51;;;;;;;;;;;;;;;16.78;84.92;101957.16;5113188;28;1152;-73
2023/08/11 00:46:17;;;;;;;;;;;;;;;16.73;84.73;101954.94;5112648;28;1903;-72
2023/08/11 00:48:42;;;;;;;;;;;;;;;16.69;85.13;101953.56;5110129;28;1081;-72
2023/08/11 00:51:08;;;;;;;;;;;;;;;16.65;85.09;101953.00;5092737;28;1281;-73
2023/08/11 00:53:33;;;;;;;;;;;;;;;16.64;85.60;101948.72;5110143;28;1104;-72
2023/08/11 00:55:59;;;;;;;;;;;;;;;16.66;85.32;101944.16;5107963;28;1088;-73
2023/08/11 00:58:24;;;;;;;;;;;;;;;16.66;85.22;101943.34;5089357;28;1493;-74
2023/08/11 01:00:51;;;;;;;;;;;;;;;16.68;85.58;101939.59;5107927;28;1057;-73
2023/08/11 01:03:17;;;;;;;;;;;;;;;16.68;85.41;101933.53;5088994;28;1281;-72
2023/08/11 01:05:46;;;;;;;;;;;;;;;16.69;85.36;101933.44;5108332;28;1952;-72
2023/08/11 01:08:23;;;;;;;;;;;;;;;16.69;85.29;101937.84;5128361;28;1152;-72
2023/08/11 01:10:58;;;;;;;;;;;;;;;16.64;85.68;101930.38;5108185;28;1253;-72
2023/08/11 01:13:27;;;;;;;;;;;;;;;16.57;85.95;101928.44;5120324;28;1104;-72
2023/08/11 01:15:57;;;;;;;;;;;;;;;16.57;86.12;101923.19;5105568;28;1711;-72
2023/08/11 01:18:23;;;;;;;;;;;;;;;16.59;85.68;101921.28;5107315;28;1208;-72
2023/08/11 01:20:52;;;;;;;;;;;;;;;16.59;85.52;101921.28;5122870;28;1074;-72
2023/08/11 01:23:18;;;;;;;;;;;;;;;16.57;85.88;101917.97;5124796;28;1172;-72
2023/08/11 01:25:44;;;;;;;;;;;;;;;16.52;85.65;101920.19;5102331;28;1902;-72
2023/08/11 01:28:09;;;;;;;;;;;;;;;16.44;86.06;101903.34;5122045;28;1167;-72
2023/08/11 01:30:36;;;;;;;;;;;;;;;16.40;86.31;101907.22;5120409;28;1089;-72
2023/08/11 01:33:01;;;;;;;;;;;;;;;16.36;86.32;101897.97;5118939;27;1147;-72
2023/08/11 01:35:26;;;;;;;;;;;;;;;16.31;86.64;101904.59;5123189;27;1003;-72
2023/08/11 01:37:52;;;;;;;;;;;;;;;16.24;86.64;101906.94;5114429;27;1101;-72
2023/08/11 01:40:17;;;;;;;;;;;;;;;16.23;87.10;101894.81;5120355;27;1108;-72
2023/08/11 01:42:43;;;;;;;;;;;;;;;16.30;86.46;101901.16;5118396;27;1082;-73
2023/08/11 01:45:09;;;;;;;;;;;;;;;16.33;86.86;101906.09;5117428;27;1957;-72
2023/08/11 01:47:36;;;;;;;;;;;;;;;16.37;86.45;101906.66;5118683;27;1093;-73
2023/08/11 01:50:02;;;;;;;;;;;;;;;16.36;86.42;101902.38;5116195;27;1096;-72
2023/08/11 01:52:33;;;;;;;;;;;;;;;16.31;86.78;101902.78;5117611;27;1116;-72
2023/08/11 01:54:58;;;;;;;;;;;;;;;16.29;86.47;101903.91;5108109;27;1041;-73
2023/08/11 01:57:23;;;;;;;;;;;;;;;16.31;86.45;101908.03;5114021;27;1178;-73
2023/08/11 01:59:48;;;;;;;;;;;;;;;16.34;86.66;101906.91;5095523;27;1279;-72
2023/08/11 02:02:14;;;;;;;;;;;;;;;16.37;86.57;101902.25;5113525;27;1159;-71
2023/08/11 02:04:39;;;;;;;;;;;;;;;16.37;86.51;101902.25;5113995;27;1013;-72
2023/08/11 02:07:04;;;;;;;;;;;;;;;16.40;86.43;101906.38;5111998;27;1956;-72
2023/08/11 02:09:31;;;;;;;;;;;;;;;16.42;86.21;101899.22;5107105;28;1163;-74
2023/08/11 02:11:56;;;;;;;;;;;;;;;16.42;86.05;101900.03;5115961;27;962;-72
2023/08/11 02:14:21;;;;;;;;;;;;;;;16.39;86.76;101895.06;5127138;27;1085;-72
2023/08/11 02:16:46;;;;;;;;;;;;;;;16.40;86.33;101896.75;5128984;27;1098;-73
2023/08/11 02:19:11;;;;;;;;;;;;;;;16.37;86.44;101897.00;5128820;27;1083;-71
2023/08/11 02:21:38;;;;;;;;;;;;;;;16.35;86.68;101893.72;5128459;27;1221;-73
2023/08/11 02:24:04;;;;;;;;;;;;;;;16.32;86.62;101893.97;5128041;27;1084;-72
2023/08/11 02:26:29;;;;;;;;;;;;;;;16.29;86.91;101888.19;5121330;27;1898;-74
2023/08/11 02:28:54;;;;;;;;;;;;;;;16.21;86.64;101891.47;5122716;27;1070;-73
2023/08/11 02:31:19;;;;;;;;;;;;;;;16.18;86.78;101886.53;5106947;27;1114;-72
2023/08/11 02:33:45;;;;;;;;;;;;;;;16.14;86.84;101882.53;5103988;27;1193;-72
2023/08/11 02:36:10;;;;;;;;;;;;;;;16.14;87.40;101885.97;5122091;27;1155;-73
2023/08/11 02:38:35;;;;;;;;;;;;;;;16.15;87.64;101886.78;5103599;27;1426;-72
2023/08/11 02:41:00;;;;;;;;;;;;;;;16.15;86.91;101882.38;5119729;27;1128;-73
2023/08/11 02:43:27;;;;;;;;;;;;;;;16.11;87.24;101885.41;5122279;27;1139;-72
2023/08/11 02:45:52;;;;;;;;;;;;;;;16.12;87.39;101889.69;5118618;27;1893;-71
2023/08/11 02:48:17;;;;;;;;;;;;;;;16.11;87.42;101886.22;5118086;27;1096;-73
2023/08/11 02:50:42;;;;;;;;;;;;;;;16.13;87.03;101893.97;5118334;27;1194;-73
2023/08/11 02:53:08;;;;;;;;;;;;;;;16.12;87.04;101897.53;5097523;28;1265;-74
2023/08/11 02:55:34;;;;;;;;;;;;;;;16.11;87.24;101890.63;5117421;27;1116;-74
2023/08/11 02:57:59;;;;;;;;;;;;;;;16.09;87.18;101897.78;5114833;27;993;-72
2023/08/11 03:00:25;;;;;;;;;;;;;;;16.03;87.64;101893.09;5115717;27;1096;-72
2023/08/11 03:02:50;;;;;;;;;;;;;;;15.95;87.72;101887.72;5115850;27;1129;-72
2023/08/11 03:05:16;;;;;;;;;;;;;;;15.87;88.27;101889.19;5095278;28;1890;-72
2023/08/11 03:07:41;;;;;;;;;;;;;;;15.82;88.02;101891.38;5111675;27;993;-72
2023/08/11 03:10:09;;;;;;;;;;;;;;;15.82;88.37;101895.78;5106220;27;1084;-72
2023/08/11 03:12:34;;;;;;;;;;;;;;;15.83;88.54;101895.69;5088508;28;1234;-72
2023/08/11 03:14:59;;;;;;;;;;;;;;;15.86;88.77;101892.78;5087592;28;1401;-72
2023/08/11 03:17:24;;;;;;;;;;;;;;;15.90;88.63;101885.50;5099161;27;1102;-73
2023/08/11 03:19:50;;;;;;;;;;;;;;;15.90;88.25;101881.09;5125032;27;1196;-73
2023/08/11 03:22:18;;;;;;;;;;;;;;;15.91;88.15;101884.53;5128994;27;1121;-72
2023/08/11 03:24:46;;;;;;;;;;;;;;;15.90;88.60;101877.66;5126441;27;1148;-72
2023/08/11 03:27:14;;;;;;;;;;;;;;;15.88;88.29;101877.78;5093440;27;1890;-72
2023/08/11 03:29:40;;;;;;;;;;;;;;;15.86;88.72;101871.84;5125791;27;1081;-73
2023/08/11 03:32:05;;;;;;;;;;;;;;;15.84;88.85;101876.41;5123926;27;1150;-72
2023/08/11 03:34:31;;;;;;;;;;;;;;;15.83;88.53;101872.13;5124996;27;1137;-72
2023/08/11 03:36:56;;;;;;;;;;;;;;;15.81;88.56;101871.44;5120656;27;959;-72
2023/08/11 03:39:21;;;;;;;;;;;;;;;15.78;88.79;101869.09;5123993;27;1127;-73
2023/08/11 03:41:47;;;;;;;;;;;;;;;15.72;89.03;101869.63;5103176;27;1162;-73
2023/08/11 03:44:12;;;;;;;;;;;;;;;15.70;89.03;101876.75;5119595;27;1092;-73
2023/08/11 03:46:37;;;;;;;;;;;;;;;15.70;89.39;101874.13;5121028;27;1953;-72
2023/08/11 03:49:03;;;;;;;;;;;;;;;15.70;89.00;101876.75;5116632;27;1334;-72
2023/08/11 03:51:28;;;;;;;;;;;;;;;15.66;89.61;101875.38;5114736;27;1097;-76
2023/08/11 03:53:53;;;;;;;;;;;;;;;15.63;89.68;101875.63;5107947;27;1144;-71
2023/08/11 03:56:19;;;;;;;;;;;;;;;15.63;89.70;101876.47;5116272;27;1085;-72
2023/08/11 03:58:44;;;;;;;;;;;;;;;15.64;89.61;101866.81;5119026;27;1110;-72
2023/08/11 04:01:09;;;;;;;;;;;;;;;15.63;89.48;101873.03;5116154;27;1104;-71
2023/08/11 04:03:35;;;;;;;;;;;;;;;15.63;89.43;101867.78;5117290;27;1085;-72
2023/08/11 04:06:01;;;;;;;;;;;;;;;15.64;89.56;101866.81;5114895;27;1961;-72
2023/08/11 04:08:27;;;;;;;;;;;;;;;15.65;89.34;101868.47;5112143;27;1065;-72
2023/08/11 04:10:53;;;;;;;;;;;;;;;15.65;89.73;101869.34;5113030;27;996;-72
2023/08/11 04:13:18;;;;;;;;;;;;;;;15.65;89.40;101863.25;5110770;27;1139;-72
2023/08/11 04:15:45;;;;;;;;;;;;;;;15.65;89.75;101863.25;5109600;27;1092;-72
2023/08/11 04:18:11;;;;;;;;;;;;;;;15.65;89.66;101860.63;5108103;28;1135;-72
2023/08/11 04:20:36;;;;;;;;;;;;;;;15.63;89.53;101867.78;5106823;28;1073;-72
2023/08/11 04:23:02;;;;;;;;;;;;;;;15.63;89.63;101865.19;5093932;28;1075;-73
2023/08/11 04:25:27;;;;;;;;;;;;;;;15.62;89.42;101866.97;5109200;28;1894;-72
2023/08/11 04:27:52;;;;;;;;;;;;;;;15.62;89.15;101871.34;5125876;28;975;-73
2023/08/11 04:30:17;;;;;;;;;;;;;;;15.60;89.45;101870.66;5108278;28;1195;-72
2023/08/11 04:32:43;;;;;;;;;;;;;;;15.59;89.32;101871.59;5125307;28;1086;-72
2023/08/11 04:35:08;;;;;;;;;;;;;;;15.58;89.32;101872.56;5123340;28;950;-74
2023/08/11 04:37:34;;;;;;;;;;;;;;;15.56;89.48;101866.66;5124398;28;1128;-72
2023/08/11 04:39:59;;;;;;;;;;;;;;;15.53;89.54;101862.50;5121853;28;1105;-72
2023/08/11 04:42:25;;;;;;;;;;;;;;;15.53;89.88;101866.91;5122978;28;1025;-73
2023/08/11 04:44:50;;;;;;;;;;;;;;;15.50;89.56;101867.19;5103288;28;1203;-72
2023/08/11 04:47:15;;;;;;;;;;;;;;;15.47;90.07;101870.03;5119194;28;1886;-74
2023/08/11 04:49:41;;;;;;;;;;;;;;;15.44;89.60;101865.09;5121207;28;1086;-72
2023/08/11 04:52:07;;;;;;;;;;;;;;;15.40;89.60;101854.88;5119044;28;1105;-72
2023/08/11 04:54:32;;;;;;;;;;;;;;;15.39;89.99;101863.69;5119550;28;961;-72
2023/08/11 04:56:57;;;;;;;;;;;;;;;15.39;90.23;101848.00;5118475;28;1129;-72
2023/08/11 04:59:22;;;;;;;;;;;;;;;15.37;90.02;101855.16;5117174;28;1025;-72
2023/08/11 05:01:48;;;;;;;;;;;;;;;15.37;90.26;101849.94;5118993;28;1129;-72
2023/08/11 05:04:14;;;;;;;;;;;;;;;15.38;90.50;101843.72;5115806;28;1124;-72
2023/08/11 05:06:39;;;;;;;;;;;;;;;15.37;90.13;101839.47;5115780;28;1894;-71
2023/08/11 05:09:04;;;;;;;;;;;;;;;15.36;90.46;101843.03;5118077;27;1097;-73
2023/08/11 05:11:29;;;;;;;;;;;;;;;15.34;90.55;101839.72;5116846;27;990;-72
2023/08/11 05:13:55;;;;;;;;;;;;;;;15.35;90.82;101846.59;5118238;27;1151;-72
2023/08/11 05:16:21;;;;;;;;;;;;;;;15.34;90.66;101833.66;5114560;27;1084;-72
2023/08/11 05:18:46;;;;;;;;;;;;;;;15.30;90.72;101833.09;5114660;27;1191;-71
2023/08/11 05:21:13;;;;;;;;;;;;;;;15.32;90.74;101836.41;5095279;27;2767;-72
2023/08/11 05:23:38;;;;;;;;;;;;;;;15.32;91.34;101833.81;5094469;28;1139;-72
2023/08/11 05:26:03;;;;;;;;;;;;;;;15.34;91.39;101831.06;5112308;27;1979;-72
2023/08/11 05:28:29;;;;;;;;;;;;;;;15.36;91.22;101837.78;5110814;27;1136;-72
2023/08/11 05:30:56;;;;;;;;;;;;;;;15.37;91.11;101836.03;5112922;27;1109;-73
2023/08/11 05:33:21;;;;;;;;;;;;;;;15.38;91.47;101833.28;5130908;27;1058;-73
2023/08/11 05:35:46;;;;;;;;;;;;;;;15.41;91.39;101834.78;5111412;27;1237;-72
2023/08/11 05:38:12;;;;;;;;;;;;;;;15.44;91.48;101833.72;5127758;27;1057;-72
2023/08/11 05:40:37;;;;;;;;;;;;;;;15.46;91.45;101829.16;5128872;27;1018;-71
2023/08/11 05:43:03;;;;;;;;;;;;;;;15.47;91.78;101828.19;5126128;27;1145;-73
2023/08/11 05:45:28;;;;;;;;;;;;;;;15.49;91.71;101827.13;5127654;27;1973;-72
2023/08/11 05:47:53;;;;;;;;;;;;;;;15.54;91.69;101829.31;5127740;27;1164;-73
2023/08/11 05:50:18;;;;;;;;;;;;;;;15.56;91.96;101833.47;5125625;27;1088;-74
2023/08/11 05:52:43;;;;;;;;;;;;;;;15.60;91.95;101828.81;5108603;27;1185;-72
2023/08/11 05:55:09;;;;;;;;;;;;;;;15.62;92.20;101826.88;5104286;27;1392;-72
2023/08/11 05:57:34;;;;;;;;;;;;;;;15.66;92.29;101828.31;5106283;27;1193;-72
2023/08/11 05:59:59;;;;;;;;;;;;;;;15.72;92.43;101825.16;5123915;27;1164;-72
2023/08/11 06:02:24;;;;;;;;;;;;;;;15.76;91.93;101829.13;5121816;27;1064;-72
2023/08/11 06:04:50;;;;;;;;;;;;;;;15.83;92.14;101832.06;5123903;27;998;-72
2023/08/11 06:07:15;;;;;;;;;;;;;;;15.90;92.52;101831.38;5118116;27;1949;-72
2023/08/11 06:09:41;;;;;;;;;;;;;;;15.97;91.93;101830.84;5118840;27;946;-72
2023/08/11 06:12:06;;;;;;;;;;;;;;;16.05;92.34;101823.13;5116172;27;1077;-74
2023/08/11 06:14:31;;;;;;;;;;;;;;;16.11;92.10;101822.56;5096078;28;1559;-74
2023/08/11 06:16:56;;;;;;;;;;;;;;;16.19;92.22;101835.81;5097171;27;1374;-74
2023/08/11 06:19:23;;;;;;;;;;;;;;;16.27;91.95;101843.81;5112700;27;1143;-72
2023/08/11 06:21:48;;;;;;;;;;;;;;;16.35;91.42;101833.50;5113967;27;1111;-72
2023/08/11 06:24:13;;;;;;;;;;;;;;;16.43;91.32;101838.84;5094666;27;1386;-73
2023/08/11 06:26:38;;;;;;;;;;;;;;;16.51;91.60;101846.00;5095361;28;1922;-72
2023/08/11 06:29:04;;;;;;;;;;;;;;;16.61;91.17;101831.13;5113463;27;1155;-72
2023/08/11 06:31:29;;;;;;;;;;;;;;;16.68;91.00;101836.63;5093387;28;1399;-73
2023/08/11 06:33:55;;;;;;;;;;;;;;;16.75;91.02;101836.94;5111102;27;1154;-73
2023/08/11 06:36:20;;;;;;;;;;;;;;;16.82;91.04;101843.25;5091578;28;1501;-72
2023/08/11 06:38:45;;;;;;;;;;;;;;;16.90;90.84;101844.19;5125411;27;1070;-73
2023/08/11 06:41:11;;;;;;;;;;;;;;;16.99;90.65;101851.22;5128880;27;966;-71
2023/08/11 06:43:38;;;;;;;;;;;;;;;17.07;90.13;101839.19;5130528;27;1093;-72
2023/08/11 06:46:04;;;;;;;;;;;;;;;17.15;90.16;101834.06;5128818;27;1957;-73
2023/08/11 06:48:29;;;;;;;;;;;;;;;17.25;90.05;101840.09;5110208;27;1219;-72
2023/08/11 06:50:56;;;;;;;;;;;;;;;17.32;90.09;101843.81;5128748;27;1143;-72
2023/08/11 06:53:21;;;;;;;;;;;;;;;17.41;89.96;101840.28;5105660;27;1434;-72
2023/08/11 06:55:46;;;;;;;;;;;;;;;17.48;89.51;101851.84;5126394;27;1128;-72
2023/08/11 06:58:11;;;;;;;;;;;;;;;17.57;89.40;101854.59;5124066;27;1126;-72
2023/08/11 07:00:37;;;;;;;;;;;;;;;17.61;88.97;101846.28;5106177;27;1168;-74
2023/08/11 07:03:03;;;;;;;;;;;;;;;17.69;88.80;101850.81;5123271;27;1085;-73
2023/08/11 07:05:28;;;;;;;;;;;;;;;17.77;88.82;101862.22;5120900;27;1957;-72
2023/08/11 07:07:53;;;;;;;;;;;;;;;17.91;88.66;101863.53;5102978;27;1309;-72
2023/08/11 07:10:18;;;;;;;;;;;;;;;18.02;88.34;101860.72;5099673;27;1484;-72
2023/08/11 07:12:43;;;;;;;;;;;;;;;18.16;88.45;101861.16;5118895;27;1143;-72
2023/08/11 07:15:09;;;;;;;;;;;;;;;18.28;87.96;101862.59;5099734;27;1279;-73
2023/08/11 07:17:34;;;;;;;;;;;;;;;18.37;87.94;101848.56;5115570;27;1191;-72
2023/08/11 07:19:59;;;;;;;;;;;;;;;18.46;88.00;101857.31;5117589;27;1104;-73
2023/08/11 07:22:24;;;;;;;;;;;;;;;18.55;87.85;101852.00;5097747;28;1304;-72
2023/08/11 07:24:50;;;;;;;;;;;;;;;18.67;87.64;101849.13;5115086;27;1236;-72
2023/08/11 07:27:15;;;;;;;;;;;;;;;18.77;87.60;101855.97;5113935;27;1909;-73
2023/08/11 07:29:40;;;;;;;;;;;;;;;18.89;87.01;101853.91;5112959;27;1136;-73
2023/08/11 07:32:05;;;;;;;;;;;;;;;19.01;86.99;101857.09;5112656;27;1077;-72
2023/08/11 07:34:30;;;;;;;;;;;;;;;19.13;86.99;101852.41;5111317;27;1143;-72
2023/08/11 07:36:56;;;;;;;;;;;;;;;19.23;86.71;101846.06;5092101;28;1236;-74
2023/08/11 07:39:22;;;;;;;;;;;;;;;19.33;86.56;101851.22;5111610;27;1126;-72
2023/08/11 07:41:47;;;;;;;;;;;;;;;19.47;86.33;101853.22;5110966;28;1103;-73
2023/08/11 07:44:12;;;;;;;;;;;;;;;19.56;86.02;101852.28;5108922;28;1109;-73
2023/08/11 07:46:37;;;;;;;;;;;;;;;19.67;85.85;101853.00;5116101;27;1955;-72
2023/08/11 07:49:03;;;;;;;;;;;;;;;19.80;85.70;101853.38;5110426;27;1246;-73
2023/08/11 07:51:28;;;;;;;;;;;;;;;19.97;85.03;101859.50;5109567;27;1100;-73
2023/08/11 07:53:53;;;;;;;;;;;;;;;20.09;84.95;101853.78;5128227;27;1136;-73
2023/08/11 07:56:18;;;;;;;;;;;;;;;20.19;84.35;101860.72;5124411;27;1093;-72
2023/08/11 07:58:45;;;;;;;;;;;;;;;20.33;84.12;101860.03;5125589;27;1086;-72
2023/08/11 08:01:10;;;;;;;;;;;;;;;20.43;83.39;101853.63;5105743;27;1324;-72
2023/08/11 08:03:36;;;;;;;;;;;;;;;20.60;83.21;101862.38;5122505;27;1104;-73
2023/08/11 08:06:04;;;;;;;;;;;;;;;20.67;82.48;101863.38;5122735;27;1901;-72
2023/08/11 08:08:30;;;;;;;;;;;;;;;20.79;82.21;101855.13;5116186;27;1087;-74
2023/08/11 08:10:55;;;;;;;;;;;;;;;20.89;81.77;101859.22;5103164;27;1356;-74
2023/08/11 08:13:20;;;;;;;;;;;;;;;21.00;81.13;101863.31;5118585;27;1140;-73
2023/08/11 08:15:45;;;;;;;;;;;;;;;21.05;80.55;101861.00;5099763;27;1319;-74
2023/08/11 08:18:10;;;;;;;;;;;;;;;21.22;80.31;101861.78;5118296;27;1106;-73
2023/08/11 08:20:36;;;;;;;;;;;;;;;21.38;79.64;101861.75;5115857;27;1140;-74
2023/08/11 08:23:02;;;;;;;;;;;;;;;21.50;78.80;101864.00;5099741;27;1165;-72
2023/08/11 08:25:27;;;;;;;;;;;;;;;21.61;78.68;101861.81;5096439;28;1901;-73
2023/08/11 08:27:52;;;;;;;;;;;;;;;21.76;78.56;101861.09;5114591;27;1163;-72
2023/08/11 08:30:19;;;;;;;;;;;;;;;21.88;78.11;101867.63;5114726;28;1089;-73
2023/08/11 08:32:44;;;;;;;;;;;;;;;21.98;77.77;101863.75;5112909;28;1140;-72
2023/08/11 08:35:10;;;;;;;;;;;;;;;22.11;77.52;101857.91;5114900;28;1096;-72
2023/08/11 08:37:35;;;;;;;;;;;;;;;22.25;76.57;101856.31;5112804;28;1290;-72
2023/08/11 08:40:00;;;;;;;;;;;;;;;22.37;75.95;101859.41;5113753;28;1036;-73
2023/08/11 08:42:26;;;;;;;;;;;;;;;22.47;75.68;101862.59;5115421;27;1196;-72
2023/08/11 08:44:52;;;;;;;;;;;;;;;22.57;75.12;101857.88;5115573;27;1100;-72
2023/08/11 08:47:19;;;;;;;;;;;;;;;22.65;74.83;101855.19;5113934;27;1905;-74
2023/08/11 08:49:45;;;;;;;;;;;;;;;22.74;72.20;101854.09;5113874;27;1084;-73
2023/08/11 08:52:10;;;;;;;;;;;;;;;22.79;74.45;101850.91;5129981;27;1074;-72
2023/08/11 08:54:36;;;;;;;;;;;;;;;22.90;74.01;101852.31;5115976;27;989;-73
2023/08/11 08:57:04;;;;;;;;;;;;;;;23.05;73.19;101850.50;5131737;27;1153;-73
2023/08/11 08:59:29;;;;;;;;;;;;;;;23.25;73.49;101851.59;5128429;27;1097;-73
2023/08/11 09:01:56;;;;;;;;;;;;;;;23.32;71.54;101847.19;5129362;27;1141;-73
2023/08/11 09:04:21;;;;;;;;;;;;;;;23.44;72.21;101849.38;5126463;27;1089;-72
2023/08/11 09:06:47;;;;;;;;;;;;;;;23.54;71.32;101855.22;5126193;27;1981;-73
2023/08/11 09:09:12;;;;;;;;;;;;;;;23.61;71.63;101853.44;5127312;27;1101;-72
2023/08/11 09:11:38;;;;;;;;;;;;;;;23.73;71.60;101854.63;5105236;27;1237;-73
2023/08/11 09:14:04;;;;;;;;;;;;;;;23.81;70.61;101851.88;5108626;27;1292;-72
2023/08/11 09:16:30;;;;;;;;;;;;;;;23.88;70.90;101856.44;5103880;27;1300;-73
2023/08/11 09:18:55;;;;;;;;;;;;;;;23.99;69.80;101858.59;5123385;27;1088;-73
2023/08/11 09:21:22;;;;;;;;;;;;;;;24.11;69.97;101862.38;5122647;27;1109;-73
2023/08/11 09:23:47;;;;;;;;;;;;;;;24.22;69.83;101864.53;5121325;27;1072;-73
2023/08/11 09:26:12;;;;;;;;;;;;;;;24.31;69.55;101866.03;5103876;27;1906;-73
2023/08/11 09:28:39;;;;;;;;;;;;;;;24.41;67.77;101862.25;5118668;27;1175;-71
2023/08/11 09:31:04;;;;;;;;;;;;;;;24.48;68.31;101857.84;5121878;27;1139;-72
2023/08/11 09:33:30;;;;;;;;;;;;;;;24.58;67.69;101858.31;5120022;27;1153;-70
2023/08/11 09:35:55;;;;;;;;;;;;;;;24.73;68.32;101856.41;5118305;27;1156;-71
2023/08/11 09:38:21;;;;;;;;;;;;;;;24.81;67.70;101853.59;5119483;27;1094;-72
2023/08/11 09:40:47;;;;;;;;;;;;;;;24.90;67.70;101846.31;5098404;28;1142;-71
2023/08/11 09:43:13;;;;;;;;;;;;;;;25.01;67.52;101842.28;5099356;27;1209;-71
2023/08/11 09:45:38;;;;;;;;;;;;;;;25.16;64.82;101845.66;5115555;27;1897;-70
2023/08/11 09:48:03;;;;;;;;;;;;;;;25.26;65.91;101843.47;5113171;27;1084;-72
2023/08/11 09:50:31;;;;;;;;;;;;;;;25.39;66.02;101840.84;5114045;27;1157;-71
2023/08/11 09:52:58;;;;;;;;;;;;;;;25.42;65.36;101845.78;5112561;27;1096;-70
2023/08/11 09:55:25;;;;;;;;;;;;;;;25.47;64.60;101841.72;5110186;27;1116;-72
2023/08/11 09:57:51;;;;;;;;;;;;;;;25.51;64.84;101842.94;5115347;27;1076;-71
2023/08/11 10:00:19;;;;;;;;;;;;;;;25.56;64.92;101845.81;5129917;27;1154;-71
2023/08/11 10:02:56;;;;;;;;;;;;;;;25.70;64.97;101836.88;5114375;27;932;-72
2023/08/11 10:05:22;;;;;;;;;;;;;;;25.81;64.25;101836.34;5128297;27;1963;-71
2023/08/11 10:07:50;;;;;;;;;;;;;;;25.87;64.13;101843.50;5109222;27;1382;-71
2023/08/11 10:10:19;;;;;;;;;;;;;;;25.87;61.85;101845.34;5128721;27;1243;-71
2023/08/11 10:12:47;;;;;;;;;;;;;;;25.91;64.18;101844.72;5125308;27;1192;-72
2023/08/11 10:15:13;;;;;;;;;;;;;;;25.91;63.61;101842.06;5106610;27;1426;-71
2023/08/11 10:17:38;;;;;;;;;;;;;;;25.99;63.62;101845.56;5100709;27;1122;-72
2023/08/11 10:20:05;;;;;;;;;;;;;;;26.04;63.27;101848.44;5123523;27;1102;-71
2023/08/11 10:22:33;;;;;;;;;;;;;;;26.00;62.94;101857.81;5120781;27;1389;-72
2023/08/11 10:25:02;;;;;;;;;;;;;;;25.99;62.52;101861.50;5121170;27;1139;-71
2023/08/11 10:27:29;;;;;;;;;;;;;;;26.03;63.22;101852.09;5120663;27;1979;-71
2023/08/11 10:29:55;;;;;;;;;;;;;;;26.05;63.18;101860.69;5103053;27;1214;-71
2023/08/11 10:32:22;;;;;;;;;;;;;;;26.01;61.94;101854.97;5122806;27;963;-71
2023/08/11 10:34:49;;;;;;;;;;;;;;;25.99;62.11;101848.22;5100759;28;1461;-72
2023/08/11 10:37:14;;;;;;;;;;;;;;;26.03;62.67;101841.44;5120989;27;1159;-71
2023/08/11 10:39:39;;;;;;;;;;;;;;;26.09;61.99;101845.97;5118092;27;1078;-71
2023/08/11 10:42:06;;;;;;;;;;;;;;;26.19;61.71;101846.38;5117891;27;1171;-71
2023/08/11 10:44:32;;;;;;;;;;;;;;;26.28;61.45;101845.16;5117595;27;1159;-71
2023/08/11 10:47:01;;;;;;;;;;;;;;;26.44;61.28;101846.66;5114163;27;1921;-71
2023/08/11 10:49:32;;;;;;;;;;;;;;;26.55;61.02;101839.84;5097426;27;1269;-72
2023/08/11 10:51:58;;;;;;;;;;;;;;;26.62;60.70;101846.00;5112573;27;990;-71
2023/08/11 10:54:23;;;;;;;;;;;;;;;26.70;60.48;101837.78;5112022;27;1088;-71
2023/08/11 10:56:50;;;;;;;;;;;;;;;26.76;60.59;101836.97;5110725;27;1088;-71
2023/08/11 10:59:17;;;;;;;;;;;;;;;26.80;60.10;101838.19;5111751;27;1069;-71
2023/08/11 11:01:46;;;;;;;;;;;;;;;26.79;59.92;101836.56;5110102;27;992;-71
2023/08/11 11:04:12;;;;;;;;;;;;;;;26.93;59.84;101840.81;5076042;28;1350;-71
2023/08/11 11:06:38;;;;;;;;;;;;;;;27.00;59.25;101844.28;5126106;27;1894;-71
2023/08/11 11:09:03;;;;;;;;;;;;;;;27.08;58.04;101845.13;5129046;27;1093;-71
2023/08/11 11:11:30;;;;;;;;;;;;;;;27.14;59.57;101838.94;5126826;27;1055;-72
2023/08/11 11:13:56;;;;;;;;;;;;;;;27.18;58.96;101840.16;5112404;27;1047;-71
2023/08/11 11:16:21;;;;;;;;;;;;;;;27.23;57.62;101837.66;5125050;27;1070;-71
2023/08/11 11:18:47;;;;;;;;;;;;;;;27.30;57.54;101833.16;5117903;27;1038;-72
2023/08/11 11:21:13;;;;;;;;;;;;;;;27.41;58.40;101834.31;5123684;27;1074;-73
2023/08/11 11:23:38;;;;;;;;;;;;;;;27.41;57.48;101835.16;5122061;27;1145;-71
2023/08/11 11:26:03;;;;;;;;;;;;;;;27.51;57.07;101840.00;5123597;27;1976;-71
2023/08/11 11:28:28;;;;;;;;;;;;;;;27.63;57.29;101837.50;5122926;27;1034;-72
2023/08/11 11:30:54;;;;;;;;;;;;;;;27.74;57.06;101836.84;5121891;27;1174;-72
2023/08/11 11:33:21;;;;;;;;;;;;;;;27.70;56.44;101827.63;5124105;27;1086;-72
2023/08/11 11:35:46;;;;;;;;;;;;;;;27.79;56.87;101827.16;5119812;27;1291;-71
2023/08/11 11:38:12;;;;;;;;;;;;;;;27.76;57.54;101829.47;5120958;27;1112;-74
2023/08/11 11:40:37;;;;;;;;;;;;;;;27.82;57.39;101828.59;5120177;27;1094;-71
2023/08/11 11:43:02;;;;;;;;;;;;;;;27.95;56.81;101831.16;5117271;27;1084;-71
2023/08/11 11:45:27;;;;;;;;;;;;;;;28.00;56.25;101828.69;5119332;27;1890;-72
2023/08/11 11:47:53;;;;;;;;;;;;;;;28.05;56.35;101831.50;5114125;27;1116;-71
2023/08/11 11:50:18;;;;;;;;;;;;;;;28.09;56.00;101825.72;5115343;27;1130;-72
2023/08/11 11:52:47;;;;;;;;;;;;;;;28.08;56.37;101824.09;5114046;27;1105;-71
2023/08/11 11:55:12;;;;;;;;;;;;;;;28.21;56.29;101823.97;5111996;27;1088;-72
2023/08/11 11:57:38;;;;;;;;;;;;;;;28.35;56.32;101820.22;5112908;27;1081;-71
2023/08/11 12:00:07;;;;;;;;;;;;;;;28.45;56.73;101815.19;5111004;27;958;-71
2023/08/11 12:02:33;;;;;;;;;;;;;;;28.49;55.86;101821.72;5112385;27;1143;-72
2023/08/11 12:04:58;;;;;;;;;;;;;;;28.57;55.41;101824.09;5110169;27;1100;-72
2023/08/11 12:07:30;;;;;;;;;;;;;;;28.61;55.98;101823.66;5090458;28;1902;-72
2023/08/11 12:09:55;;;;;;;;;;;;;;;28.58;54.13;101815.06;5100774;27;1046;-72
2023/08/11 12:12:23;;;;;;;;;;;;;;;28.50;55.69;101812.69;5089249;27;1146;-72
2023/08/11 12:14:48;;;;;;;;;;;;;;;28.53;55.50;101817.56;5126059;27;1125;-71
2023/08/11 12:17:14;;;;;;;;;;;;;;;28.52;55.30;101820.47;5104707;27;1173;-72
2023/08/11 12:19:39;;;;;;;;;;;;;;;28.56;55.46;101822.47;5122814;27;1059;-72
2023/08/11 12:22:05;;;;;;;;;;;;;;;28.65;55.58;101820.31;5107417;27;1306;-71
2023/08/11 12:24:30;;;;;;;;;;;;;;;28.76;56.61;101810.78;5124885;27;1148;-73
2023/08/11 12:26:56;;;;;;;;;;;;;;;28.86;55.46;101811.06;5123179;27;1969;-72
2023/08/11 12:29:21;;;;;;;;;;;;;;;28.84;55.51;101807.78;5124448;28;947;-71
2023/08/11 12:31:48;;;;;;;;;;;;;;;28.83;56.42;101812.31;5122830;28;1133;-71
2023/08/11 12:34:13;;;;;;;;;;;;;;;28.83;55.15;101816.84;5113510;28;1090;-71
2023/08/11 12:36:38;;;;;;;;;;;;;;;28.82;55.01;101804.53;5121834;28;1073;-71
2023/08/11 12:39:04;;;;;;;;;;;;;;;28.80;54.40;101811.97;5101597;28;1310;-71